TimeEST,TemperatureF,Dew PointF,Humidity,Sea Level PressureIn,VisibilityMPH,Wind Direction,Wind SpeedMPH,Gust SpeedMPH,PrecipitationIn,Events,Conditions,WindDirDegrees,DateUTC
12:15 AM,60.8,48.2,63,29.74,7.0,SW,8.1,-,N/A,,Clear,230,2013-02-27 05:15:00
12:35 AM,60.8,50.0,68,29.74,7.0,SW,9.2,-,N/A,,Clear,230,2013-02-27 05:35:00
12:55 AM,60.8,50.0,68,29.75,7.0,SW,8.1,-,N/A,,Clear,230,2013-02-27 05:55:00
1:15 AM,59.0,50.0,72,29.76,7.0,WSW,9.2,-,N/A,,Clear,240,2013-02-27 06:15:00
1:35 AM,59.0,46.4,63,29.78,10.0,WNW,18.4,23.0,N/A,,Scattered Clouds,300,2013-02-27 06:35:00
1:55 AM,55.4,46.4,72,29.78,7.0,WNW,16.1,23.0,N/A,,Scattered Clouds,290,2013-02-27 06:55:00
2:15 AM,53.6,46.4,77,29.80,7.0,WNW,13.8,20.7,N/A,,Clear,290,2013-02-27 07:15:00
2:35 AM,53.6,46.4,77,29.80,10.0,West,10.4,-,N/A,,Mostly Cloudy,280,2013-02-27 07:35:00
2:55 AM,53.6,44.6,72,29.80,7.0,WNW,9.2,-,N/A,,Overcast,300,2013-02-27 07:55:00
3:15 AM,51.8,44.6,76,29.81,7.0,WNW,9.2,-,N/A,,Mostly Cloudy,300,2013-02-27 08:15:00
3:35 AM,51.8,44.6,76,29.81,7.0,WNW,9.2,-,N/A,,Mostly Cloudy,300,2013-02-27 08:35:00
3:55 AM,51.8,44.6,76,29.83,10.0,WNW,12.7,-,N/A,,Scattered Clouds,290,2013-02-27 08:55:00
4:35 AM,51.8,42.8,71,29.84,10.0,West,9.2,19.6,N/A,,Clear,280,2013-02-27 09:35:00
4:55 AM,50.0,41.0,71,29.84,10.0,West,9.2,-,N/A,,Clear,260,2013-02-27 09:55:00
5:15 AM,50.0,41.0,71,29.84,7.0,West,9.2,-,N/A,,Clear,270,2013-02-27 10:15:00
5:35 AM,50.0,41.0,71,29.85,7.0,West,9.2,-,N/A,,Clear,260,2013-02-27 10:35:00
5:55 AM,50.0,41.0,71,29.86,7.0,West,9.2,-,N/A,,Clear,270,2013-02-27 10:55:00
6:15 AM,50.0,41.0,71,29.86,7.0,West,6.9,-,N/A,,Clear,270,2013-02-27 11:15:00
6:35 AM,50.0,39.2,66,29.87,7.0,West,10.4,17.3,N/A,,Clear,270,2013-02-27 11:35:00
6:55 AM,50.0,37.4,62,29.86,10.0,West,12.7,16.1,N/A,,Clear,270,2013-02-27 11:55:00
7:15 AM,50.0,37.4,62,29.88,10.0,West,8.1,-,N/A,,Clear,270,2013-02-27 12:15:00
7:35 AM,50.0,37.4,62,29.88,10.0,West,8.1,17.3,N/A,,Clear,280,2013-02-27 12:35:00
7:55 AM,50.0,35.6,58,29.90,5.0,West,13.8,19.6,N/A,,Haze,280,2013-02-27 12:55:00
8:15 AM,50.0,35.6,58,29.91,7.0,West,13.8,-,N/A,,Clear,260,2013-02-27 13:15:00
8:35 AM,50.0,35.6,58,29.92,7.0,WNW,12.7,-,N/A,,Clear,290,2013-02-27 13:35:00
8:55 AM,50.0,35.6,58,29.92,7.0,West,11.5,20.7,N/A,,Clear,270,2013-02-27 13:55:00
9:15 AM,50.0,33.8,54,29.93,10.0,West,16.1,20.7,N/A,,Clear,270,2013-02-27 14:15:00
9:55 AM,50.0,33.8,54,29.92,10.0,WNW,11.5,-,N/A,,Clear,300,2013-02-27 14:55:00
10:35 AM,53.6,35.6,51,29.91,10.0,West,8.1,18.4,N/A,,Clear,280,2013-02-27 15:35:00
10:55 AM,53.6,33.8,47,29.91,10.0,West,8.1,-,N/A,,Clear,270,2013-02-27 15:55:00
11:15 AM,53.6,33.8,47,29.92,10.0,WNW,10.4,-,N/A,,Clear,290,2013-02-27 16:15:00
11:35 AM,53.6,33.8,47,29.91,10.0,WSW,10.4,-,N/A,,Clear,250,2013-02-27 16:35:00
11:55 AM,55.4,33.8,44,29.91,10.0,West,9.2,-,N/A,,Clear,260,2013-02-27 16:55:00
12:15 PM,55.4,35.6,47,29.91,10.0,West,10.4,-,N/A,,Clear,260,2013-02-27 17:15:00
12:35 PM,55.4,35.6,47,29.90,10.0,WSW,10.4,-,N/A,,Clear,250,2013-02-27 17:35:00
12:55 PM,55.4,35.6,47,29.89,10.0,West,9.2,-,N/A,,Clear,260,2013-02-27 17:55:00
1:15 PM,55.4,35.6,47,29.88,10.0,WSW,11.5,-,N/A,,Clear,240,2013-02-27 18:15:00
1:35 PM,55.4,35.6,47,29.87,10.0,SW,6.9,-,N/A,,Clear,220,2013-02-27 18:35:00
1:55 PM,55.4,35.6,47,29.87,10.0,SW,6.9,-,N/A,,Clear,230,2013-02-27 18:55:00
2:15 PM,57.2,37.4,48,29.87,10.0,WSW,9.2,-,N/A,,Clear,250,2013-02-27 19:15:00
2:35 PM,55.4,35.6,47,29.86,10.0,SW,8.1,-,N/A,,Clear,230,2013-02-27 19:35:00
3:35 PM,55.4,37.4,51,29.86,10.0,SW,10.4,-,N/A,,Clear,230,2013-02-27 20:35:00
3:55 PM,55.4,37.4,51,29.85,10.0,WSW,9.2,-,N/A,,Clear,240,2013-02-27 20:55:00
4:15 PM,55.4,37.4,51,29.85,10.0,SW,8.1,-,N/A,,Clear,220,2013-02-27 21:15:00
4:35 PM,55.4,37.4,51,29.85,10.0,SW,10.4,-,N/A,,Clear,230,2013-02-27 21:35:00
4:55 PM,55.4,37.4,51,29.85,10.0,SW,6.9,-,N/A,,Clear,230,2013-02-27 21:55:00
5:15 PM,55.4,37.4,51,29.85,10.0,SW,6.9,-,N/A,,Clear,230,2013-02-27 22:15:00
5:35 PM,53.6,37.4,54,29.85,10.0,SW,9.2,-,N/A,,Clear,230,2013-02-27 22:35:00
5:55 PM,53.6,37.4,54,29.86,10.0,WSW,9.2,-,N/A,,Clear,240,2013-02-27 22:55:00
6:15 PM,53.6,37.4,54,29.86,10.0,WSW,8.1,-,N/A,,Clear,240,2013-02-27 23:15:00
6:35 PM,53.6,37.4,54,29.86,10.0,SW,6.9,-,N/A,,Clear,230,2013-02-27 23:35:00
6:55 PM,53.6,37.4,54,29.87,10.0,SW,8.1,-,N/A,,Clear,230,2013-02-27 23:55:00
7:15 PM,51.8,37.4,58,29.86,10.0,SW,8.1,-,N/A,,Clear,230,2013-02-28 00:15:00
7:35 PM,51.8,39.2,62,29.86,10.0,SW,5.8,-,N/A,,Clear,220,2013-02-28 00:35:00
7:55 PM,51.8,39.2,62,29.86,10.0,SW,5.8,-,N/A,,Clear,230,2013-02-28 00:55:00
8:15 PM,51.8,41.0,67,29.87,7.0,SW,4.6,-,N/A,,Clear,230,2013-02-28 01:15:00
8:35 PM,51.8,39.2,62,29.87,10.0,SW,5.8,-,N/A,,Clear,220,2013-02-28 01:35:00
9:15 PM,51.8,41.0,67,29.87,10.0,WSW,9.2,16.1,N/A,,Clear,240,2013-02-28 02:15:00
9:35 PM,51.8,41.0,67,29.87,10.0,SW,8.1,-,N/A,,Clear,230,2013-02-28 02:35:00
9:55 PM,51.8,41.0,67,29.88,10.0,WSW,12.7,17.3,N/A,,Clear,240,2013-02-28 02:55:00
10:35 PM,53.6,39.2,58,29.88,10.0,WSW,12.7,19.6,N/A,,Clear,240,2013-02-28 03:35:00
11:35 PM,51.8,37.4,58,29.88,10.0,WSW,15.0,21.9,N/A,,Clear,250,2013-02-28 04:35:00
11:55 PM,51.8,39.2,62,29.87,10.0,WSW,16.1,21.9,N/A,,Clear,250,2013-02-28 04:55:00